Time;durP1;ratioP1;P1;durP2;ratioP2;P2;SDS_P1;SDS_P2;PMS_P1;PMS_P2;Temp;Humidity;BMP_temperature;BMP_pressure;BME280_temperature;BME280_humidity;BME280_pressure;Samples;Min_cycle;Max_cycle;Signal;HPM_P1;HPM_P2
2020/12/29 01:01:44;;;;;;;2.10;1.40;;;;;;;10.92;54.00;93147.95;821821;71;32740;-78
2020/12/29 01:46:37;;;;;;;1.20;1.10;;;;;;;11.14;51.87;93232.89;779296;72;33387;-78
2020/12/29 02:01:37;;;;;;;1.17;1.10;;;;;;;11.19;51.28;93203.84;766824;75;33190;-76
2020/12/29 02:16:47;;;;;;;1.32;1.15;;;;;;;11.27;50.99;93208.00;774403;75;33589;-77
2020/12/29 02:46:14;;;;;;;1.12;1.02;;;;;;;11.18;50.79;93200.97;821750;71;31514;-79
2020/12/29 03:01:15;;;;;;;3.50;1.42;;;;;;;11.25;50.13;93207.00;822931;71;32615;-81
2020/12/29 03:46:12;;;;;;;1.67;1.00;;;;;;;11.35;48.96;93291.19;820677;71;32026;-79
2020/12/29 04:16:56;;;;;;;1.00;1.00;;;;;;;11.60;46.94;93288.13;821022;71;32065;-75
2020/12/29 04:31:18;;;;;;;1.47;0.90;;;;;;;11.70;46.62;93324.51;815085;71;32701;-79
2020/12/29 04:46:21;;;;;;;1.00;1.00;;;;;;;11.76;46.56;93334.25;821377;71;32829;-79
2020/12/29 05:01:18;;;;;;;1.20;1.10;;;;;;;11.76;47.17;93327.16;815809;71;32645;-79
2020/12/29 05:16:43;;;;;;;0.90;0.90;;;;;;;11.76;47.21;93371.04;794960;72;33404;-79
2020/12/29 05:31:20;;;;;;;1.52;1.20;;;;;;;11.79;47.85;93317.84;824385;71;32628;-79
2020/12/29 06:01:54;;;;;;;1.25;1.10;;;;;;;11.74;49.01;93339.85;824561;71;32810;-78
2020/12/29 06:16:19;;;;;;;1.50;0.93;;;;;;;11.73;49.34;93367.76;827624;71;32845;-79
2020/12/29 06:31:36;;;;;;;1.10;1.00;;;;;;;12.49;47.88;93360.00;791284;72;32957;-78
2020/12/29 06:46:37;;;;;;;1.45;1.35;;;;;;;13.85;44.67;93368.53;794715;73;33754;-79
2020/12/29 08:01:32;;;;;;;1.02;1.00;;;;;;;16.78;39.53;93493.13;825196;71;32793;-78
2020/12/29 08:16:50;;;;;;;1.00;1.00;;;;;;;17.33;37.83;93512.26;772412;75;33116;-76
2020/12/29 08:31:47;;;;;;;1.60;1.27;;;;;;;17.38;37.93;93488.11;818422;70;33306;-78
2020/12/29 08:46:50;;;;;;;3.65;1.20;;;;;;;16.98;38.72;93510.55;807043;71;33174;-76
2020/12/29 10:01:59;;;;;;;2.02;1.70;;;;;;;18.06;37.77;93532.70;795544;72;32996;-78
2020/12/29 11:01:39;;;;;;;1.55;1.45;;;;;;;18.16;36.84;93538.72;779349;74;32984;-79
2020/12/29 11:16:36;;;;;;;3.58;1.62;;;;;;;17.98;37.19;93514.03;793651;72;33341;-74
2020/12/29 11:31:45;;;;;;;2.17;1.60;;;;;;;17.56;37.86;93537.45;780942;73;33600;-78
2020/12/29 11:46:13;;;;;;;1.90;1.40;;;;;;;17.63;37.18;93563.33;824015;71;33074;-76
2020/12/29 12:02:10;;;;;;;;;;;;;;;;;;;;;
2020/12/29 12:16:45;;;;;;;3.35;1.25;;;;;;;18.05;36.94;93585.04;783737;74;32935;-76
2020/12/29 12:31:22;;;;;;;1.30;1.30;;;;;;;18.57;35.85;93586.13;822400;71;32829;-79
2020/12/29 12:46:18;;;;;;;1.57;1.47;;;;;;;18.01;36.20;93610.20;820958;71;32686;-78
2020/12/29 13:01:36;;;;;;;1.85;1.27;;;;;;;17.47;37.02;93616.48;772258;75;32938;-78
2020/12/29 13:46:41;;;;;;;1.65;1.55;;;;;;;16.14;39.72;93673.94;787135;74;32883;-78
2020/12/29 14:31:28;;;;;;;1.70;1.60;;;;;;;14.63;42.55;93689.25;827198;71;32805;-80
2020/12/29 15:16:13;;;;;;;1.80;1.70;;;;;;;13.74;45.12;93712.28;815821;71;32130;-83
2020/12/29 16:01:46;;;;;;;1.85;1.75;;;;;;;13.56;45.53;93760.45;778631;75;33464;-77
2020/12/29 16:16:58;;;;;;;3.17;2.33;;;;;;;13.59;45.47;93766.40;819539;71;27043;-79
2020/12/29 16:31:12;;;;;;;5.87;2.37;;;;;;;13.55;45.22;93773.41;821482;71;32632;-77
2020/12/29 17:01:27;;;;;;;1.87;1.65;;;;;;;13.41;46.37;93834.29;822827;71;33273;-84
2020/12/29 17:16:23;;;;;;;3.62;1.50;;;;;;;13.37;46.69;93857.66;820108;71;32741;-77
2020/12/29 17:31:25;;;;;;;2.37;1.70;;;;;;;13.39;46.50;93847.57;822875;71;33259;-79
2020/12/29 17:46:40;;;;;;;1.57;1.35;;;;;;;13.43;46.13;93865.60;776739;75;32985;-80
2020/12/29 18:01:27;;;;;;;2.00;1.52;;;;;;;13.46;46.05;93878.13;829354;71;32665;-79
2020/12/29 18:16:54;;;;;;;1.80;1.70;;;;;;;13.50;45.72;93909.89;800913;72;32850;-79
2020/12/29 18:31:50;;;;;;;1.70;1.60;;;;;;;13.39;46.12;93901.04;804378;72;33170;-79
2020/12/29 18:46:47;;;;;;;2.15;2.02;;;;;;;13.28;46.51;93919.61;782919;75;33335;-77
